sensor_id;sensor_type;location;lat;lon;timestamp;P1;durP1;ratioP1;P2;durP2;ratioP2
25567;SDS011;13455;51.480;7.594;2023-04-22T00:00:22;6.85;;;4.72;;
25567;SDS011;13455;51.480;7.594;2023-04-22T00:02:47;6.57;;;5.10;;
25567;SDS011;13455;51.480;7.594;2023-04-22T00:05:13;6.82;;;4.95;;
25567;SDS011;13455;51.480;7.594;2023-04-22T00:07:39;7.13;;;5.30;;
25567;SDS011;13455;51.480;7.594;2023-04-22T00:10:07;7.25;;;5.38;;
25567;SDS011;13455;51.480;7.594;2023-04-22T00:12:34;8.57;;;5.70;;
25567;SDS011;13455;51.480;7.594;2023-04-22T00:14:59;8.07;;;5.43;;
25567;SDS011;13455;51.480;7.594;2023-04-22T00:17:25;7.72;;;5.50;;
25567;SDS011;13455;51.480;7.594;2023-04-22T00:19:51;8.33;;;5.87;;
25567;SDS011;13455;51.480;7.594;2023-04-22T00:22:17;7.95;;;5.70;;
25567;SDS011;13455;51.480;7.594;2023-04-22T00:24:42;9.32;;;5.85;;
25567;SDS011;13455;51.480;7.594;2023-04-22T00:27:08;8.10;;;5.70;;
25567;SDS011;13455;51.480;7.594;2023-04-22T00:29:34;7.90;;;5.67;;
25567;SDS011;13455;51.480;7.594;2023-04-22T00:32:00;7.95;;;6.00;;
25567;SDS011;13455;51.480;7.594;2023-04-22T00:34:26;9.43;;;5.85;;
25567;SDS011;13455;51.480;7.594;2023-04-22T00:36:52;9.13;;;6.00;;
25567;SDS011;13455;51.480;7.594;2023-04-22T00:39:19;8.10;;;5.90;;
25567;SDS011;13455;51.480;7.594;2023-04-22T00:41:45;8.60;;;5.68;;
25567;SDS011;13455;51.480;7.594;2023-04-22T00:44:11;8.25;;;6.05;;
25567;SDS011;13455;51.480;7.594;2023-04-22T00:46:37;10.07;;;6.60;;
25567;SDS011;13455;51.480;7.594;2023-04-22T00:49:04;8.73;;;5.95;;
25567;SDS011;13455;51.480;7.594;2023-04-22T00:51:30;10.18;;;5.97;;
25567;SDS011;13455;51.480;7.594;2023-04-22T00:53:57;8.73;;;6.20;;
25567;SDS011;13455;51.480;7.594;2023-04-22T00:56:26;8.93;;;6.07;;
25567;SDS011;13455;51.480;7.594;2023-04-22T00:58:53;9.30;;;5.70;;
25567;SDS011;13455;51.480;7.594;2023-04-22T01:01:19;7.47;;;5.65;;
25567;SDS011;13455;51.480;7.594;2023-04-22T01:03:46;8.53;;;5.80;;
25567;SDS011;13455;51.480;7.594;2023-04-22T01:06:12;7.95;;;5.68;;
25567;SDS011;13455;51.480;7.594;2023-04-22T01:08:38;7.10;;;5.50;;
25567;SDS011;13455;51.480;7.594;2023-04-22T01:11:05;7.18;;;4.90;;
25567;SDS011;13455;51.480;7.594;2023-04-22T01:13:31;6.20;;;4.82;;
25567;SDS011;13455;51.480;7.594;2023-04-22T01:15:57;6.57;;;4.73;;
25567;SDS011;13455;51.480;7.594;2023-04-22T01:18:23;6.05;;;4.63;;
25567;SDS011;13455;51.480;7.594;2023-04-22T01:20:50;6.30;;;4.43;;
25567;SDS011;13455;51.480;7.594;2023-04-22T01:23:20;6.40;;;4.60;;
25567;SDS011;13455;51.480;7.594;2023-04-22T01:25:46;8.05;;;5.03;;
25567;SDS011;13455;51.480;7.594;2023-04-22T01:28:13;7.85;;;4.85;;
25567;SDS011;13455;51.480;7.594;2023-04-22T01:30:40;7.45;;;4.90;;
25567;SDS011;13455;51.480;7.594;2023-04-22T01:33:06;7.13;;;4.50;;
25567;SDS011;13455;51.480;7.594;2023-04-22T01:35:32;6.00;;;4.40;;
25567;SDS011;13455;51.480;7.594;2023-04-22T01:38:02;6.20;;;4.50;;
25567;SDS011;13455;51.480;7.594;2023-04-22T01:40:30;5.82;;;4.43;;
25567;SDS011;13455;51.480;7.594;2023-04-22T01:42:57;6.55;;;4.10;;
25567;SDS011;13455;51.480;7.594;2023-04-22T01:45:23;5.72;;;4.38;;
25567;SDS011;13455;51.480;7.594;2023-04-22T01:47:50;7.50;;;4.57;;
25567;SDS011;13455;51.480;7.594;2023-04-22T01:50:16;5.93;;;4.18;;
25567;SDS011;13455;51.480;7.594;2023-04-22T01:52:42;6.47;;;4.10;;
25567;SDS011;13455;51.480;7.594;2023-04-22T01:55:08;6.60;;;4.30;;
25567;SDS011;13455;51.480;7.594;2023-04-22T01:57:34;5.22;;;4.20;;
25567;SDS011;13455;51.480;7.594;2023-04-22T02:00:00;6.00;;;4.40;;
25567;SDS011;13455;51.480;7.594;2023-04-22T02:02:26;6.07;;;4.15;;
25567;SDS011;13455;51.480;7.594;2023-04-22T02:04:52;6.57;;;4.57;;
25567;SDS011;13455;51.480;7.594;2023-04-22T02:07:18;5.90;;;4.10;;
25567;SDS011;13455;51.480;7.594;2023-04-22T02:09:44;6.47;;;4.20;;
25567;SDS011;13455;51.480;7.594;2023-04-22T02:12:10;6.18;;;3.88;;
25567;SDS011;13455;51.480;7.594;2023-04-22T02:14:36;5.93;;;3.97;;
25567;SDS011;13455;51.480;7.594;2023-04-22T02:17:02;5.60;;;3.87;;
25567;SDS011;13455;51.480;7.594;2023-04-22T02:19:28;4.60;;;3.78;;
25567;SDS011;13455;51.480;7.594;2023-04-22T02:21:54;7.13;;;3.97;;
25567;SDS011;13455;51.480;7.594;2023-04-22T02:24:20;6.65;;;4.05;;
25567;SDS011;13455;51.480;7.594;2023-04-22T02:26:46;5.47;;;4.10;;
25567;SDS011;13455;51.480;7.594;2023-04-22T02:29:13;6.13;;;4.40;;
25567;SDS011;13455;51.480;7.594;2023-04-22T02:31:40;6.10;;;4.35;;
25567;SDS011;13455;51.480;7.594;2023-04-22T02:34:06;5.88;;;4.43;;
25567;SDS011;13455;51.480;7.594;2023-04-22T02:36:32;6.63;;;4.55;;
25567;SDS011;13455;51.480;7.594;2023-04-22T02:38:59;6.43;;;4.70;;
25567;SDS011;13455;51.480;7.594;2023-04-22T02:41:25;6.57;;;4.97;;
25567;SDS011;13455;51.480;7.594;2023-04-22T02:43:51;7.70;;;4.93;;
25567;SDS011;13455;51.480;7.594;2023-04-22T02:46:17;7.68;;;5.13;;
25567;SDS011;13455;51.480;7.594;2023-04-22T02:48:43;8.70;;;5.43;;
25567;SDS011;13455;51.480;7.594;2023-04-22T02:51:10;6.78;;;4.95;;
25567;SDS011;13455;51.480;7.594;2023-04-22T02:53:36;7.80;;;4.57;;
25567;SDS011;13455;51.480;7.594;2023-04-22T02:56:02;8.02;;;4.60;;
25567;SDS011;13455;51.480;7.594;2023-04-22T02:58:29;6.68;;;4.50;;
25567;SDS011;13455;51.480;7.594;2023-04-22T03:00:55;5.97;;;4.30;;
25567;SDS011;13455;51.480;7.594;2023-04-22T03:03:22;6.15;;;4.40;;
25567;SDS011;13455;51.480;7.594;2023-04-22T03:05:48;5.90;;;4.50;;
25567;SDS011;13455;51.480;7.594;2023-04-22T03:08:14;6.60;;;4.00;;
25567;SDS011;13455;51.480;7.594;2023-04-22T03:10:40;5.95;;;4.10;;
25567;SDS011;13455;51.480;7.594;2023-04-22T03:13:06;6.87;;;4.23;;
25567;SDS011;13455;51.480;7.594;2023-04-22T03:15:32;6.03;;;4.40;;
25567;SDS011;13455;51.480;7.594;2023-04-22T03:17:58;7.05;;;4.40;;
25567;SDS011;13455;51.480;7.594;2023-04-22T03:20:24;5.95;;;4.05;;
25567;SDS011;13455;51.480;7.594;2023-04-22T03:22:50;5.70;;;4.00;;
25567;SDS011;13455;51.480;7.594;2023-04-22T03:25:16;6.32;;;3.92;;
25567;SDS011;13455;51.480;7.594;2023-04-22T03:27:42;5.35;;;4.10;;
25567;SDS011;13455;51.480;7.594;2023-04-22T03:30:08;5.95;;;3.92;;
25567;SDS011;13455;51.480;7.594;2023-04-22T03:32:34;6.93;;;4.07;;
25567;SDS011;13455;51.480;7.594;2023-04-22T03:35:00;5.50;;;3.90;;
25567;SDS011;13455;51.480;7.594;2023-04-22T03:37:26;6.18;;;3.90;;
25567;SDS011;13455;51.480;7.594;2023-04-22T03:39:52;5.18;;;4.15;;
25567;SDS011;13455;51.480;7.594;2023-04-22T03:42:18;5.88;;;4.20;;
25567;SDS011;13455;51.480;7.594;2023-04-22T03:44:44;5.37;;;4.27;;
25567;SDS011;13455;51.480;7.594;2023-04-22T03:47:10;6.28;;;4.32;;
25567;SDS011;13455;51.480;7.594;2023-04-22T03:49:36;7.68;;;4.32;;
25567;SDS011;13455;51.480;7.594;2023-04-22T03:52:02;7.15;;;4.35;;
25567;SDS011;13455;51.480;7.594;2023-04-22T03:54:28;8.87;;;4.53;;
25567;SDS011;13455;51.480;7.594;2023-04-22T03:56:55;6.20;;;4.60;;
25567;SDS011;13455;51.480;7.594;2023-04-22T03:59:21;7.22;;;4.68;;
25567;SDS011;13455;51.480;7.594;2023-04-22T04:01:49;7.73;;;5.00;;
25567;SDS011;13455;51.480;7.594;2023-04-22T04:04:15;6.35;;;4.65;;
25567;SDS011;13455;51.480;7.594;2023-04-22T04:06:41;7.28;;;4.95;;
25567;SDS011;13455;51.480;7.594;2023-04-22T04:09:07;10.95;;;5.10;;
25567;SDS011;13455;51.480;7.594;2023-04-22T04:11:33;8.45;;;5.13;;
25567;SDS011;13455;51.480;7.594;2023-04-22T04:13:59;8.65;;;4.97;;
25567;SDS011;13455;51.480;7.594;2023-04-22T04:16:25;7.15;;;4.95;;
25567;SDS011;13455;51.480;7.594;2023-04-22T04:18:51;7.43;;;4.82;;
25567;SDS011;13455;51.480;7.594;2023-04-22T04:21:17;6.55;;;4.88;;
25567;SDS011;13455;51.480;7.594;2023-04-22T04:23:43;6.53;;;4.88;;
25567;SDS011;13455;51.480;7.594;2023-04-22T04:26:09;6.57;;;5.00;;
25567;SDS011;13455;51.480;7.594;2023-04-22T04:28:35;7.60;;;4.93;;
25567;SDS011;13455;51.480;7.594;2023-04-22T04:31:01;7.57;;;5.10;;
25567;SDS011;13455;51.480;7.594;2023-04-22T04:33:28;7.95;;;5.30;;
25567;SDS011;13455;51.480;7.594;2023-04-22T04:35:56;7.68;;;5.22;;
25567;SDS011;13455;51.480;7.594;2023-04-22T04:38:23;7.35;;;5.00;;
25567;SDS011;13455;51.480;7.594;2023-04-22T04:40:49;8.48;;;5.05;;
25567;SDS011;13455;51.480;7.594;2023-04-22T04:43:15;8.18;;;5.22;;
25567;SDS011;13455;51.480;7.594;2023-04-22T04:45:42;7.45;;;5.40;;
25567;SDS011;13455;51.480;7.594;2023-04-22T04:48:12;9.13;;;5.40;;
25567;SDS011;13455;51.480;7.594;2023-04-22T04:50:40;8.68;;;5.45;;
25567;SDS011;13455;51.480;7.594;2023-04-22T04:53:06;7.75;;;5.28;;
25567;SDS011;13455;51.480;7.594;2023-04-22T04:55:32;6.68;;;5.30;;
25567;SDS011;13455;51.480;7.594;2023-04-22T04:57:58;7.87;;;5.77;;
25567;SDS011;13455;51.480;7.594;2023-04-22T05:00:24;7.47;;;5.10;;
25567;SDS011;13455;51.480;7.594;2023-04-22T05:02:50;6.75;;;4.80;;
25567;SDS011;13455;51.480;7.594;2023-04-22T05:05:16;6.85;;;4.90;;
25567;SDS011;13455;51.480;7.594;2023-04-22T05:07:42;7.07;;;4.90;;
25567;SDS011;13455;51.480;7.594;2023-04-22T05:10:08;8.45;;;4.97;;
25567;SDS011;13455;51.480;7.594;2023-04-22T05:12:35;8.40;;;5.00;;
25567;SDS011;13455;51.480;7.594;2023-04-22T05:15:01;7.93;;;4.90;;
25567;SDS011;13455;51.480;7.594;2023-04-22T05:17:27;6.03;;;4.63;;
25567;SDS011;13455;51.480;7.594;2023-04-22T05:19:53;6.78;;;4.72;;
25567;SDS011;13455;51.480;7.594;2023-04-22T05:22:19;6.78;;;4.70;;
25567;SDS011;13455;51.480;7.594;2023-04-22T05:24:45;6.65;;;4.53;;
25567;SDS011;13455;51.480;7.594;2023-04-22T05:27:11;6.23;;;4.30;;
25567;SDS011;13455;51.480;7.594;2023-04-22T05:29:37;6.03;;;4.30;;
25567;SDS011;13455;51.480;7.594;2023-04-22T05:32:03;5.97;;;4.10;;
25567;SDS011;13455;51.480;7.594;2023-04-22T05:34:29;5.72;;;3.90;;
25567;SDS011;13455;51.480;7.594;2023-04-22T05:36:55;5.13;;;3.70;;
25567;SDS011;13455;51.480;7.594;2023-04-22T05:39:21;6.93;;;4.38;;
25567;SDS011;13455;51.480;7.594;2023-04-22T05:41:47;5.80;;;4.60;;
25567;SDS011;13455;51.480;7.594;2023-04-22T05:44:13;6.60;;;4.50;;
25567;SDS011;13455;51.480;7.594;2023-04-22T05:46:41;6.60;;;3.95;;
25567;SDS011;13455;51.480;7.594;2023-04-22T05:49:07;7.32;;;3.80;;
25567;SDS011;13455;51.480;7.594;2023-04-22T05:51:33;5.68;;;3.80;;
25567;SDS011;13455;51.480;7.594;2023-04-22T05:53:59;5.55;;;3.42;;
25567;SDS011;13455;51.480;7.594;2023-04-22T05:56:25;4.85;;;3.45;;
25567;SDS011;13455;51.480;7.594;2023-04-22T05:58:51;6.65;;;3.50;;
25567;SDS011;13455;51.480;7.594;2023-04-22T06:01:17;4.72;;;3.25;;
25567;SDS011;13455;51.480;7.594;2023-04-22T06:03:43;5.10;;;3.42;;
25567;SDS011;13455;51.480;7.594;2023-04-22T06:06:09;6.03;;;3.30;;
25567;SDS011;13455;51.480;7.594;2023-04-22T06:08:35;5.13;;;3.40;;
25567;SDS011;13455;51.480;7.594;2023-04-22T06:11:01;6.88;;;3.75;;
25567;SDS011;13455;51.480;7.594;2023-04-22T06:13:27;4.50;;;3.25;;
25567;SDS011;13455;51.480;7.594;2023-04-22T06:15:53;6.05;;;3.30;;
25567;SDS011;13455;51.480;7.594;2023-04-22T06:18:19;4.85;;;3.00;;
25567;SDS011;13455;51.480;7.594;2023-04-22T06:20:45;5.30;;;3.20;;
25567;SDS011;13455;51.480;7.594;2023-04-22T06:23:11;5.30;;;3.00;;
25567;SDS011;13455;51.480;7.594;2023-04-22T06:25:37;4.78;;;3.00;;
25567;SDS011;13455;51.480;7.594;2023-04-22T06:28:03;5.18;;;3.30;;
25567;SDS011;13455;51.480;7.594;2023-04-22T06:30:29;5.20;;;3.13;;
25567;SDS011;13455;51.480;7.594;2023-04-22T06:32:55;4.45;;;3.08;;
25567;SDS011;13455;51.480;7.594;2023-04-22T06:35:21;4.57;;;3.05;;
25567;SDS011;13455;51.480;7.594;2023-04-22T06:37:47;4.28;;;2.75;;
25567;SDS011;13455;51.480;7.594;2023-04-22T06:40:14;5.27;;;2.90;;
25567;SDS011;13455;51.480;7.594;2023-04-22T06:42:40;4.82;;;2.70;;
25567;SDS011;13455;51.480;7.594;2023-04-22T06:45:06;5.55;;;2.80;;
25567;SDS011;13455;51.480;7.594;2023-04-22T06:47:33;4.70;;;2.93;;
25567;SDS011;13455;51.480;7.594;2023-04-22T06:50:00;3.95;;;2.60;;
25567;SDS011;13455;51.480;7.594;2023-04-22T06:52:27;5.25;;;2.70;;
25567;SDS011;13455;51.480;7.594;2023-04-22T06:54:53;5.07;;;2.63;;
25567;SDS011;13455;51.480;7.594;2023-04-22T06:57:19;3.70;;;2.70;;
25567;SDS011;13455;51.480;7.594;2023-04-22T07:15:34;3.55;;;2.40;;
25567;SDS011;13455;51.480;7.594;2023-04-22T07:18:00;5.53;;;2.63;;
25567;SDS011;13455;51.480;7.594;2023-04-22T07:20:25;3.73;;;2.30;;
25567;SDS011;13455;51.480;7.594;2023-04-22T07:22:51;5.10;;;2.47;;
25567;SDS011;13455;51.480;7.594;2023-04-22T07:25:16;3.63;;;2.20;;
25567;SDS011;13455;51.480;7.594;2023-04-22T07:27:42;3.45;;;2.17;;
25567;SDS011;13455;51.480;7.594;2023-04-22T07:30:09;3.75;;;2.20;;
25567;SDS011;13455;51.480;7.594;2023-04-22T07:32:36;3.90;;;1.80;;
25567;SDS011;13455;51.480;7.594;2023-04-22T07:35:02;3.57;;;2.33;;
25567;SDS011;13455;51.480;7.594;2023-04-22T07:37:28;3.90;;;2.05;;
25567;SDS011;13455;51.480;7.594;2023-04-22T07:39:54;3.05;;;1.90;;
25567;SDS011;13455;51.480;7.594;2023-04-22T07:42:20;4.10;;;1.90;;
25567;SDS011;13455;51.480;7.594;2023-04-22T07:44:47;3.33;;;1.97;;
25567;SDS011;13455;51.480;7.594;2023-04-22T07:47:12;3.47;;;2.00;;
25567;SDS011;13455;51.480;7.594;2023-04-22T07:49:38;3.90;;;2.00;;
25567;SDS011;13455;51.480;7.594;2023-04-22T07:52:03;3.42;;;2.00;;
25567;SDS011;13455;51.480;7.594;2023-04-22T07:54:29;5.35;;;1.90;;
25567;SDS011;13455;51.480;7.594;2023-04-22T07:56:55;3.60;;;1.92;;
25567;SDS011;13455;51.480;7.594;2023-04-22T07:59:22;3.30;;;1.90;;
25567;SDS011;13455;51.480;7.594;2023-04-22T08:01:48;3.13;;;1.83;;
25567;SDS011;13455;51.480;7.594;2023-04-22T08:04:13;2.60;;;1.70;;
25567;SDS011;13455;51.480;7.594;2023-04-22T08:06:39;4.33;;;1.80;;
25567;SDS011;13455;51.480;7.594;2023-04-22T08:09:05;3.57;;;1.70;;
25567;SDS011;13455;51.480;7.594;2023-04-22T08:11:31;2.75;;;1.65;;
25567;SDS011;13455;51.480;7.594;2023-04-22T08:13:56;2.60;;;1.70;;
25567;SDS011;13455;51.480;7.594;2023-04-22T08:16:22;5.03;;;1.80;;
25567;SDS011;13455;51.480;7.594;2023-04-22T08:18:47;4.57;;;1.63;;
25567;SDS011;13455;51.480;7.594;2023-04-22T08:21:13;2.80;;;1.60;;
25567;SDS011;13455;51.480;7.594;2023-04-22T08:23:39;2.40;;;1.50;;
25567;SDS011;13455;51.480;7.594;2023-04-22T08:26:05;6.83;;;1.87;;
25567;SDS011;13455;51.480;7.594;2023-04-22T08:28:32;4.37;;;1.60;;
25567;SDS011;13455;51.480;7.594;2023-04-22T08:30:58;2.45;;;1.60;;
25567;SDS011;13455;51.480;7.594;2023-04-22T08:33:24;3.10;;;1.70;;
25567;SDS011;13455;51.480;7.594;2023-04-22T08:35:49;3.00;;;1.60;;
25567;SDS011;13455;51.480;7.594;2023-04-22T08:38:15;5.03;;;1.67;;
25567;SDS011;13455;51.480;7.594;2023-04-22T08:40:41;4.82;;;1.60;;
25567;SDS011;13455;51.480;7.594;2023-04-22T08:43:07;3.35;;;1.50;;
25567;SDS011;13455;51.480;7.594;2023-04-22T08:45:33;4.10;;;1.80;;
25567;SDS011;13455;51.480;7.594;2023-04-22T08:47:59;2.90;;;1.60;;
25567;SDS011;13455;51.480;7.594;2023-04-22T08:50:26;5.20;;;1.40;;
25567;SDS011;13455;51.480;7.594;2023-04-22T08:52:54;3.33;;;1.63;;
25567;SDS011;13455;51.480;7.594;2023-04-22T08:55:19;3.33;;;1.63;;
25567;SDS011;13455;51.480;7.594;2023-04-22T08:57:45;2.53;;;1.50;;
25567;SDS011;13455;51.480;7.594;2023-04-22T09:00:12;2.43;;;1.50;;
25567;SDS011;13455;51.480;7.594;2023-04-22T09:02:38;3.05;;;1.45;;
25567;SDS011;13455;51.480;7.594;2023-04-22T09:05:09;2.92;;;1.60;;
25567;SDS011;13455;51.480;7.594;2023-04-22T09:07:35;2.28;;;1.55;;
25567;SDS011;13455;51.480;7.594;2023-04-22T09:10:03;3.60;;;1.70;;
25567;SDS011;13455;51.480;7.594;2023-04-22T09:12:29;3.63;;;1.70;;
25567;SDS011;13455;51.480;7.594;2023-04-22T09:14:54;3.67;;;1.60;;
25567;SDS011;13455;51.480;7.594;2023-04-22T09:17:29;3.05;;;1.60;;
25567;SDS011;13455;51.480;7.594;2023-04-22T09:19:59;2.50;;;1.38;;
25567;SDS011;13455;51.480;7.594;2023-04-22T09:22:26;5.50;;;1.60;;
25567;SDS011;13455;51.480;7.594;2023-04-22T09:24:52;3.95;;;1.70;;
25567;SDS011;13455;51.480;7.594;2023-04-22T09:27:18;3.60;;;1.70;;
25567;SDS011;13455;51.480;7.594;2023-04-22T09:29:48;4.22;;;1.60;;
25567;SDS011;13455;51.480;7.594;2023-04-22T09:32:15;3.58;;;1.50;;
25567;SDS011;13455;51.480;7.594;2023-04-22T09:34:45;4.22;;;1.70;;
25567;SDS011;13455;51.480;7.594;2023-04-22T09:37:19;3.83;;;1.50;;
25567;SDS011;13455;51.480;7.594;2023-04-22T09:39:48;4.40;;;1.77;;
25567;SDS011;13455;51.480;7.594;2023-04-22T09:42:17;5.25;;;1.45;;
25567;SDS011;13455;51.480;7.594;2023-04-22T09:44:44;4.00;;;1.50;;
25567;SDS011;13455;51.480;7.594;2023-04-22T09:47:11;2.92;;;1.70;;
25567;SDS011;13455;51.480;7.594;2023-04-22T09:49:37;5.10;;;1.60;;
25567;SDS011;13455;51.480;7.594;2023-04-22T09:52:03;4.28;;;1.42;;
25567;SDS011;13455;51.480;7.594;2023-04-22T09:54:30;5.50;;;1.60;;
25567;SDS011;13455;51.480;7.594;2023-04-22T09:56:56;3.92;;;1.60;;
25567;SDS011;13455;51.480;7.594;2023-04-22T09:59:22;3.23;;;1.57;;
25567;SDS011;13455;51.480;7.594;2023-04-22T10:01:50;4.00;;;1.50;;
25567;SDS011;13455;51.480;7.594;2023-04-22T10:04:17;3.03;;;1.60;;
25567;SDS011;13455;51.480;7.594;2023-04-22T10:06:45;2.92;;;1.40;;
25567;SDS011;13455;51.480;7.594;2023-04-22T10:09:12;3.00;;;1.40;;
25567;SDS011;13455;51.480;7.594;2023-04-22T10:11:41;3.30;;;1.50;;
25567;SDS011;13455;51.480;7.594;2023-04-22T10:14:07;3.10;;;1.55;;
25567;SDS011;13455;51.480;7.594;2023-04-22T10:16:35;4.07;;;1.35;;
25567;SDS011;13455;51.480;7.594;2023-04-22T10:19:03;3.92;;;1.50;;
25567;SDS011;13455;51.480;7.594;2023-04-22T10:21:31;3.33;;;1.52;;
25567;SDS011;13455;51.480;7.594;2023-04-22T10:23:58;3.42;;;1.60;;
25567;SDS011;13455;51.480;7.594;2023-04-22T10:29:24;3.95;;;1.52;;
25567;SDS011;13455;51.480;7.594;2023-04-22T10:31:56;4.17;;;1.43;;
25567;SDS011;13455;51.480;7.594;2023-04-22T10:35:05;2.50;;;1.30;;
25567;SDS011;13455;51.480;7.594;2023-04-22T10:37:33;4.05;;;1.40;;
25567;SDS011;13455;51.480;7.594;2023-04-22T10:40:06;3.55;;;1.40;;
25567;SDS011;13455;51.480;7.594;2023-04-22T10:42:34;3.75;;;1.35;;
25567;SDS011;13455;51.480;7.594;2023-04-22T10:45:00;2.10;;;1.38;;
25567;SDS011;13455;51.480;7.594;2023-04-22T10:47:28;3.15;;;1.38;;
25567;SDS011;13455;51.480;7.594;2023-04-22T10:52:41;3.35;;;1.42;;
25567;SDS011;13455;51.480;7.594;2023-04-22T10:55:08;3.33;;;1.63;;
25567;SDS011;13455;51.480;7.594;2023-04-22T10:57:41;3.22;;;1.50;;
25567;SDS011;13455;51.480;7.594;2023-04-22T11:02:45;3.33;;;1.50;;
25567;SDS011;13455;51.480;7.594;2023-04-22T11:07:50;3.20;;;1.40;;
25567;SDS011;13455;51.480;7.594;2023-04-22T11:10:33;3.20;;;1.67;;
25567;SDS011;13455;51.480;7.594;2023-04-22T11:13:09;3.08;;;1.42;;
25567;SDS011;13455;51.480;7.594;2023-04-22T11:15:40;3.75;;;1.60;;
25567;SDS011;13455;51.480;7.594;2023-04-22T11:18:21;4.10;;;1.42;;
25567;SDS011;13455;51.480;7.594;2023-04-22T11:20:49;4.75;;;1.60;;
25567;SDS011;13455;51.480;7.594;2023-04-22T11:23:22;3.10;;;1.60;;
25567;SDS011;13455;51.480;7.594;2023-04-22T11:25:55;4.00;;;1.50;;
25567;SDS011;13455;51.480;7.594;2023-04-22T11:28:21;4.53;;;1.60;;
25567;SDS011;13455;51.480;7.594;2023-04-22T11:30:47;4.13;;;1.48;;
25567;SDS011;13455;51.480;7.594;2023-04-22T11:33:14;3.10;;;1.50;;
25567;SDS011;13455;51.480;7.594;2023-04-22T11:35:40;4.30;;;1.70;;
25567;SDS011;13455;51.480;7.594;2023-04-22T11:38:07;3.22;;;1.48;;
25567;SDS011;13455;51.480;7.594;2023-04-22T11:43:03;3.25;;;1.40;;
25567;SDS011;13455;51.480;7.594;2023-04-22T11:45:31;5.60;;;1.63;;
25567;SDS011;13455;51.480;7.594;2023-04-22T11:47:58;3.20;;;1.70;;
25567;SDS011;13455;51.480;7.594;2023-04-22T11:50:26;2.90;;;1.58;;
25567;SDS011;13455;51.480;7.594;2023-04-22T11:55:38;3.10;;;1.40;;
25567;SDS011;13455;51.480;7.594;2023-04-22T12:03:06;4.15;;;1.70;;
25567;SDS011;13455;51.480;7.594;2023-04-22T12:05:40;3.58;;;1.50;;
25567;SDS011;13455;51.480;7.594;2023-04-22T12:08:23;5.13;;;1.70;;
25567;SDS011;13455;51.480;7.594;2023-04-22T12:10:59;3.85;;;1.70;;
25567;SDS011;13455;51.480;7.594;2023-04-22T12:13:31;3.35;;;1.70;;
25567;SDS011;13455;51.480;7.594;2023-04-22T12:16:23;3.35;;;1.60;;
25567;SDS011;13455;51.480;7.594;2023-04-22T12:21:22;3.17;;;1.43;;
25567;SDS011;13455;51.480;7.594;2023-04-22T12:23:53;4.05;;;1.60;;
25567;SDS011;13455;51.480;7.594;2023-04-22T12:26:21;4.40;;;1.53;;
25567;SDS011;13455;51.480;7.594;2023-04-22T12:28:48;3.58;;;1.50;;
25567;SDS011;13455;51.480;7.594;2023-04-22T12:31:15;3.25;;;1.50;;
25567;SDS011;13455;51.480;7.594;2023-04-22T12:33:41;3.97;;;1.57;;
25567;SDS011;13455;51.480;7.594;2023-04-22T12:36:08;4.50;;;1.42;;
25567;SDS011;13455;51.480;7.594;2023-04-22T12:38:34;4.20;;;1.42;;
25567;SDS011;13455;51.480;7.594;2023-04-22T12:41:01;3.10;;;1.50;;
25567;SDS011;13455;51.480;7.594;2023-04-22T12:43:28;3.47;;;1.45;;
25567;SDS011;13455;51.480;7.594;2023-04-22T12:45:53;3.80;;;1.52;;
25567;SDS011;13455;51.480;7.594;2023-04-22T12:48:19;3.40;;;1.50;;
25567;SDS011;13455;51.480;7.594;2023-04-22T12:50:45;4.65;;;1.80;;
25567;SDS011;13455;51.480;7.594;2023-04-22T12:53:11;4.50;;;1.50;;
25567;SDS011;13455;51.480;7.594;2023-04-22T12:55:36;2.47;;;1.45;;
25567;SDS011;13455;51.480;7.594;2023-04-22T12:58:02;4.33;;;1.60;;
25567;SDS011;13455;51.480;7.594;2023-04-22T13:00:28;3.17;;;1.75;;
25567;SDS011;13455;51.480;7.594;2023-04-22T13:02:53;4.53;;;1.65;;
25567;SDS011;13455;51.480;7.594;2023-04-22T13:05:19;2.73;;;1.40;;
25567;SDS011;13455;51.480;7.594;2023-04-22T13:07:45;2.88;;;1.50;;
25567;SDS011;13455;51.480;7.594;2023-04-22T13:10:12;5.27;;;1.50;;
25567;SDS011;13455;51.480;7.594;2023-04-22T13:12:39;4.35;;;1.67;;
25567;SDS011;13455;51.480;7.594;2023-04-22T13:15:06;4.05;;;1.50;;
25567;SDS011;13455;51.480;7.594;2023-04-22T13:17:32;4.30;;;1.80;;
25567;SDS011;13455;51.480;7.594;2023-04-22T13:19:59;3.58;;;1.70;;
25567;SDS011;13455;51.480;7.594;2023-04-22T13:22:25;5.85;;;1.70;;
25567;SDS011;13455;51.480;7.594;2023-04-22T13:24:51;3.95;;;1.70;;
25567;SDS011;13455;51.480;7.594;2023-04-22T13:27:17;3.95;;;1.63;;
25567;SDS011;13455;51.480;7.594;2023-04-22T13:29:43;4.45;;;1.55;;
25567;SDS011;13455;51.480;7.594;2023-04-22T13:32:10;5.32;;;1.70;;
25567;SDS011;13455;51.480;7.594;2023-04-22T13:34:37;5.00;;;1.70;;
25567;SDS011;13455;51.480;7.594;2023-04-22T13:37:03;4.97;;;2.13;;
25567;SDS011;13455;51.480;7.594;2023-04-22T13:39:30;3.22;;;1.50;;
25567;SDS011;13455;51.480;7.594;2023-04-22T13:41:56;5.35;;;1.60;;
25567;SDS011;13455;51.480;7.594;2023-04-22T13:44:22;5.40;;;1.60;;
25567;SDS011;13455;51.480;7.594;2023-04-22T13:46:48;3.97;;;1.58;;
25567;SDS011;13455;51.480;7.594;2023-04-22T13:49:13;3.53;;;1.77;;
25567;SDS011;13455;51.480;7.594;2023-04-22T13:51:39;4.23;;;1.70;;
25567;SDS011;13455;51.480;7.594;2023-04-22T13:54:05;5.60;;;1.63;;
25567;SDS011;13455;51.480;7.594;2023-04-22T13:56:31;3.42;;;1.60;;
25567;SDS011;13455;51.480;7.594;2023-04-22T13:58:57;2.67;;;1.50;;
25567;SDS011;13455;51.480;7.594;2023-04-22T14:01:23;2.90;;;1.52;;
25567;SDS011;13455;51.480;7.594;2023-04-22T14:03:50;3.42;;;1.50;;
25567;SDS011;13455;51.480;7.594;2023-04-22T14:06:16;5.55;;;2.10;;
25567;SDS011;13455;51.480;7.594;2023-04-22T14:08:42;4.73;;;1.90;;
25567;SDS011;13455;51.480;7.594;2023-04-22T14:11:08;3.22;;;1.60;;
25567;SDS011;13455;51.480;7.594;2023-04-22T14:13:34;3.60;;;1.40;;
25567;SDS011;13455;51.480;7.594;2023-04-22T14:16:01;4.70;;;1.85;;
25567;SDS011;13455;51.480;7.594;2023-04-22T14:18:27;3.25;;;1.60;;
25567;SDS011;13455;51.480;7.594;2023-04-22T14:20:53;3.47;;;1.50;;
25567;SDS011;13455;51.480;7.594;2023-04-22T14:23:19;3.58;;;1.63;;
25567;SDS011;13455;51.480;7.594;2023-04-22T14:25:45;3.38;;;1.52;;
25567;SDS011;13455;51.480;7.594;2023-04-22T14:28:12;4.93;;;1.70;;
25567;SDS011;13455;51.480;7.594;2023-04-22T14:30:39;4.03;;;1.70;;
25567;SDS011;13455;51.480;7.594;2023-04-22T14:33:05;4.80;;;1.90;;
25567;SDS011;13455;51.480;7.594;2023-04-22T14:35:32;4.53;;;1.90;;
25567;SDS011;13455;51.480;7.594;2023-04-22T14:37:59;2.70;;;1.60;;
25567;SDS011;13455;51.480;7.594;2023-04-22T14:40:25;3.25;;;1.50;;
25567;SDS011;13455;51.480;7.594;2023-04-22T14:42:53;4.15;;;1.70;;
25567;SDS011;13455;51.480;7.594;2023-04-22T14:45:20;2.83;;;1.60;;
25567;SDS011;13455;51.480;7.594;2023-04-22T14:47:46;3.10;;;1.70;;
25567;SDS011;13455;51.480;7.594;2023-04-22T14:50:12;4.80;;;1.80;;
25567;SDS011;13455;51.480;7.594;2023-04-22T14:52:38;4.90;;;2.10;;
25567;SDS011;13455;51.480;7.594;2023-04-22T14:55:04;4.60;;;2.07;;
25567;SDS011;13455;51.480;7.594;2023-04-22T14:57:30;3.75;;;2.10;;
25567;SDS011;13455;51.480;7.594;2023-04-22T14:59:55;3.60;;;2.03;;
25567;SDS011;13455;51.480;7.594;2023-04-22T15:02:21;4.63;;;2.10;;
25567;SDS011;13455;51.480;7.594;2023-04-22T15:04:47;3.38;;;1.90;;
25567;SDS011;13455;51.480;7.594;2023-04-22T15:07:12;5.55;;;1.90;;
25567;SDS011;13455;51.480;7.594;2023-04-22T15:09:38;3.73;;;2.10;;
25567;SDS011;13455;51.480;7.594;2023-04-22T15:12:04;3.73;;;1.93;;
25567;SDS011;13455;51.480;7.594;2023-04-22T15:14:30;4.97;;;2.20;;
25567;SDS011;13455;51.480;7.594;2023-04-22T15:16:59;4.18;;;2.20;;
25567;SDS011;13455;51.480;7.594;2023-04-22T15:19:25;4.20;;;2.28;;
25567;SDS011;13455;51.480;7.594;2023-04-22T15:21:51;4.00;;;2.42;;
25567;SDS011;13455;51.480;7.594;2023-04-22T15:24:17;5.32;;;2.40;;